Terminal Aerodrome Forecast
Issued by NWS Sterling, VA

Current Version | Previous Version | Graphics & Text | Print | Product List | Glossary On
Versions: 1 2 3 4 5 6 7 8 9 10 11 12 13 14 15 16
622
FTUS41 KLWX 242320
TAFMRB
TAF
KMRB 242320Z 2500/2524 27005KT P6SM FEW050 SCT200
     FM250200 VRB03KT P6SM FEW050 FEW250
     FM251400 28010G18KT P6SM SCT060
     FM252300 28010KT P6SM FEW250=

USA.gov is the U.S. government's official web portal to all federal, state and local government web resources and services.